createdAt,value
2023-05-23T00:02:03.516Z,0.00
2023-05-23T00:07:23.626Z,0.00
2023-05-23T00:12:16.020Z,0.00
2023-05-23T00:17:16.049Z,0.00
2023-05-23T00:22:15.889Z,0.00
2023-05-23T00:27:15.823Z,0.00
2023-05-23T00:32:15.765Z,0.00
2023-05-23T00:37:15.685Z,0.00
2023-05-23T00:42:15.632Z,0.00
2023-05-23T00:47:15.610Z,0.00
2023-05-23T00:52:15.505Z,0.00
2023-05-23T00:57:15.448Z,0.00
2023-05-23T01:02:15.410Z,0.00
2023-05-23T01:07:15.301Z,0.00
2023-05-23T01:12:15.282Z,0.00
2023-05-23T01:17:15.158Z,0.00
2023-05-23T01:22:15.077Z,0.00
2023-05-23T01:27:15.042Z,0.00
2023-05-23T01:32:15.020Z,0.00
2023-05-23T01:37:14.914Z,0.00
2023-05-23T01:42:14.914Z,0.00
2023-05-23T01:47:14.763Z,0.00
2023-05-23T01:52:14.790Z,0.00
2023-05-23T01:57:14.699Z,0.00
2023-05-23T02:02:14.711Z,0.00
2023-05-23T02:07:14.500Z,0.00
2023-05-23T02:12:14.431Z,0.00
2023-05-23T02:17:14.484Z,0.00
2023-05-23T02:22:14.339Z,0.00
2023-05-23T02:27:14.261Z,0.00
2023-05-23T02:32:14.152Z,0.00
2023-05-23T02:37:14.104Z,0.00
2023-05-23T02:42:14.033Z,0.00
2023-05-23T02:47:13.968Z,0.00
2023-05-23T02:52:13.907Z,0.00
2023-05-23T02:57:14.787Z,0.00
2023-05-23T03:02:13.766Z,0.00
2023-05-23T03:07:26.985Z,0.00
2023-05-23T03:12:14.640Z,0.00
2023-05-23T03:17:13.546Z,0.00
2023-05-23T03:22:13.499Z,0.00
2023-05-23T03:27:13.496Z,0.00
2023-05-23T03:32:13.475Z,0.00
2023-05-23T03:37:13.339Z,0.00
2023-05-23T03:42:13.297Z,0.00
2023-05-23T03:47:13.155Z,0.00
2023-05-23T03:52:13.077Z,0.00
2023-05-23T03:57:13.047Z,0.00
2023-05-23T04:02:12.985Z,0.00
2023-05-23T04:07:12.987Z,0.00
2023-05-23T04:12:12.847Z,0.00
2023-05-23T04:17:23.808Z,0.00
2023-05-23T04:22:16.172Z,0.00
2023-05-23T04:27:16.154Z,0.00
2023-05-23T04:32:16.176Z,0.00
2023-05-23T04:37:15.996Z,5.62
2023-05-23T04:42:16.124Z,5.62
2023-05-23T04:47:15.893Z,5.62
2023-05-23T04:52:15.882Z,5.62
2023-05-23T04:57:15.977Z,5.62
2023-05-23T05:02:15.735Z,5.62
2023-05-23T05:07:15.635Z,5.62
2023-05-23T05:12:15.553Z,5.62
2023-05-23T05:17:15.503Z,5.62
2023-05-23T05:22:15.431Z,5.62
2023-05-23T05:27:15.321Z,5.62
2023-05-23T05:32:15.284Z,5.62
2023-05-23T05:37:15.262Z,11.25
2023-05-23T05:42:15.130Z,11.25
2023-05-23T05:47:15.067Z,11.25
2023-05-23T05:52:15.007Z,11.25
2023-05-23T05:57:14.991Z,11.25
2023-05-23T06:02:14.925Z,22.50
2023-05-23T06:07:14.832Z,22.50
2023-05-23T06:12:14.986Z,16.88
2023-05-23T06:17:16.382Z,39.38
2023-05-23T06:22:14.637Z,33.75
2023-05-23T06:27:14.689Z,28.12
2023-05-23T06:32:14.540Z,28.12
2023-05-23T06:37:14.429Z,50.62
2023-05-23T06:42:14.422Z,90.00
2023-05-23T06:47:14.313Z,101.25
2023-05-23T06:52:14.204Z,106.88
2023-05-23T06:57:14.174Z,56.25
2023-05-23T07:02:14.162Z,56.25
2023-05-23T07:07:14.060Z,61.88
2023-05-23T07:12:13.971Z,90.00
2023-05-23T07:17:14.153Z,106.88
2023-05-23T07:22:13.848Z,123.75
2023-05-23T07:27:13.798Z,78.75
2023-05-23T07:32:13.710Z,101.25
2023-05-23T07:37:13.664Z,118.12
2023-05-23T07:42:13.560Z,50.62
2023-05-23T07:47:13.559Z,50.62
2023-05-23T07:52:13.417Z,45.00
2023-05-23T07:57:13.414Z,56.25
2023-05-23T08:02:13.315Z,39.38
2023-05-23T08:07:13.208Z,39.38
2023-05-23T08:12:13.149Z,45.00
2023-05-23T08:17:13.189Z,50.62
2023-05-23T08:22:13.029Z,50.62
2023-05-23T08:27:12.957Z,61.88
2023-05-23T08:32:13.004Z,50.62
2023-05-23T08:37:12.817Z,33.75
2023-05-23T08:42:12.790Z,28.12
2023-05-23T08:47:12.691Z,28.12
2023-05-23T08:52:12.649Z,28.12
2023-05-23T08:57:12.546Z,28.12
2023-05-23T09:02:12.508Z,39.38
2023-05-23T09:07:12.502Z,56.25
2023-05-23T09:12:12.377Z,56.25
2023-05-23T09:17:12.319Z,33.75
2023-05-23T09:22:12.256Z,45.00
2023-05-23T09:27:12.167Z,39.38
2023-05-23T09:32:12.155Z,39.38
2023-05-23T09:37:12.042Z,45.00
2023-05-23T09:42:11.970Z,78.75
2023-05-23T09:47:11.987Z,101.25
2023-05-23T09:52:11.912Z,174.38
2023-05-23T09:57:11.788Z,309.38
2023-05-23T10:02:13.193Z,337.50
2023-05-23T10:07:11.709Z,371.25
2023-05-23T10:12:11.569Z,416.25
2023-05-23T10:17:11.599Z,315.00
2023-05-23T10:22:11.456Z,275.62
2023-05-23T10:27:11.409Z,241.88
2023-05-23T10:32:11.313Z,174.38
2023-05-23T10:37:11.242Z,101.25
2023-05-23T10:42:11.301Z,73.12
2023-05-23T10:47:11.165Z,45.00
2023-05-23T10:52:11.066Z,56.25
2023-05-23T10:57:10.989Z,61.88
2023-05-23T11:02:11.053Z,84.38
2023-05-23T11:07:10.839Z,56.25
2023-05-23T11:12:10.822Z,39.38
2023-05-23T11:17:10.708Z,45.00
2023-05-23T11:22:10.755Z,101.25
2023-05-23T11:27:10.546Z,101.25
2023-05-23T11:32:15.043Z,78.75
2023-05-23T11:37:11.459Z,61.88
2023-05-23T11:42:10.365Z,45.00
2023-05-23T11:47:10.434Z,56.25
2023-05-23T11:52:10.291Z,84.38
2023-05-23T11:57:10.170Z,84.38
2023-05-23T12:02:10.333Z,50.62
2023-05-23T12:07:10.143Z,45.00
2023-05-23T12:12:10.128Z,45.00
2023-05-23T12:17:09.890Z,61.88
2023-05-23T12:22:09.896Z,84.38
2023-05-23T12:27:09.769Z,135.00
2023-05-23T12:32:09.753Z,185.62
2023-05-23T12:37:19.598Z,213.75
2023-05-23T12:42:10.621Z,258.75
2023-05-23T12:47:09.555Z,247.50
2023-05-23T12:52:09.516Z,191.25
2023-05-23T12:57:09.392Z,118.12
2023-05-23T13:02:09.334Z,95.62
2023-05-23T13:07:09.221Z,123.75
2023-05-23T13:12:09.243Z,67.50
2023-05-23T13:17:09.161Z,56.25
2023-05-23T13:22:09.120Z,56.25
2023-05-23T13:27:09.009Z,61.88
2023-05-23T13:32:08.944Z,101.25
2023-05-23T13:37:08.874Z,101.25
2023-05-23T13:42:08.939Z,101.25
2023-05-23T13:47:10.925Z,118.12
2023-05-23T13:52:08.675Z,135.00
2023-05-23T13:57:08.612Z,123.75
2023-05-23T14:02:08.572Z,106.88
2023-05-23T14:07:08.453Z,73.12
2023-05-23T14:12:08.419Z,95.62
2023-05-23T14:17:08.297Z,123.75
2023-05-23T14:22:08.299Z,140.62
2023-05-23T14:27:10.867Z,123.75
2023-05-23T14:32:08.206Z,123.75
2023-05-23T14:37:08.050Z,118.12
2023-05-23T14:42:08.001Z,90.00
2023-05-23T14:47:07.955Z,61.88
2023-05-23T14:52:07.921Z,78.75
2023-05-23T14:57:07.788Z,146.25
2023-05-23T15:02:07.921Z,151.88
2023-05-23T15:07:07.670Z,112.50
2023-05-23T15:12:07.630Z,106.88
2023-05-23T15:17:07.685Z,112.50
2023-05-23T15:22:08.478Z,101.25
2023-05-23T15:27:19.500Z,95.62
2023-05-23T15:32:08.463Z,90.00
2023-05-23T15:37:07.283Z,73.12
2023-05-23T15:42:07.225Z,90.00
2023-05-23T15:47:07.129Z,67.50
2023-05-23T15:52:07.076Z,56.25
2023-05-23T15:57:07.005Z,67.50
2023-05-23T16:02:07.110Z,84.38
2023-05-23T16:07:06.878Z,90.00
2023-05-23T16:12:06.793Z,73.12
2023-05-23T16:17:06.771Z,67.50
2023-05-23T16:22:06.664Z,78.75
2023-05-23T16:27:06.598Z,95.62
2023-05-23T16:32:06.630Z,73.12
2023-05-23T16:37:06.569Z,61.88
2023-05-23T16:42:06.451Z,67.50
2023-05-23T16:47:06.376Z,67.50
2023-05-23T16:52:06.330Z,73.12
2023-05-23T16:57:06.284Z,61.88
2023-05-23T17:02:06.169Z,56.25
2023-05-23T17:07:06.112Z,56.25
2023-05-23T17:12:06.001Z,56.25
2023-05-23T17:17:05.965Z,45.00
2023-05-23T17:22:07.797Z,45.00
2023-05-23T17:27:05.824Z,67.50
2023-05-23T17:32:05.845Z,67.50
2023-05-23T17:37:05.767Z,73.12
2023-05-23T17:42:05.691Z,61.88
2023-05-23T17:47:05.618Z,50.62
2023-05-23T17:52:05.522Z,45.00
2023-05-23T17:57:05.470Z,45.00
2023-05-23T18:02:05.317Z,39.38
2023-05-23T18:07:05.297Z,39.38
2023-05-23T18:12:05.233Z,33.75
2023-05-23T18:17:05.161Z,28.12
2023-05-23T18:22:05.073Z,22.50
2023-05-23T18:27:05.065Z,22.50
2023-05-23T18:32:04.957Z,16.88
2023-05-23T18:37:04.925Z,16.88
2023-05-23T18:42:05.051Z,11.25
2023-05-23T18:47:04.893Z,11.25
2023-05-23T18:52:04.675Z,11.25
2023-05-23T18:57:04.655Z,5.62
2023-05-23T19:02:04.561Z,5.62
2023-05-23T19:07:04.485Z,5.62
2023-05-23T19:12:04.523Z,0.00
2023-05-23T19:17:04.318Z,0.00
2023-05-23T19:22:04.248Z,0.00
2023-05-23T19:27:04.220Z,0.00
2023-05-23T19:32:04.249Z,0.00
2023-05-23T19:37:04.076Z,0.00
2023-05-23T19:42:03.987Z,0.00
2023-05-23T19:47:04.017Z,0.00
2023-05-23T19:52:03.908Z,0.00
2023-05-23T19:57:03.816Z,0.00
2023-05-23T20:02:03.841Z,0.00
2023-05-23T20:07:03.881Z,0.00
2023-05-23T20:12:03.649Z,0.00
2023-05-23T20:17:03.669Z,0.00
2023-05-23T20:22:03.493Z,0.00
2023-05-23T20:27:03.445Z,0.00
2023-05-23T20:32:03.365Z,0.00
2023-05-23T20:37:03.299Z,0.00
2023-05-23T20:42:03.216Z,0.00
2023-05-23T20:47:03.255Z,0.00
2023-05-23T20:52:03.113Z,0.00
2023-05-23T20:57:03.105Z,0.00
2023-05-23T21:02:03.009Z,0.00
2023-05-23T21:07:02.901Z,0.00
2023-05-23T21:12:02.823Z,0.00
2023-05-23T21:17:02.819Z,0.00
2023-05-23T21:22:02.703Z,0.00
2023-05-23T21:27:02.648Z,0.00
2023-05-23T21:32:02.568Z,0.00
2023-05-23T21:37:02.487Z,0.00
2023-05-23T21:42:02.406Z,0.00
2023-05-23T21:47:02.356Z,0.00
2023-05-23T21:52:02.301Z,0.00
2023-05-23T21:57:02.198Z,0.00
2023-05-23T22:02:02.307Z,0.00
2023-05-23T22:07:02.106Z,0.00
2023-05-23T22:12:02.070Z,0.00
2023-05-23T22:17:01.989Z,0.00
2023-05-23T22:22:01.877Z,0.00
2023-05-23T22:27:01.812Z,0.00
2023-05-23T22:32:01.901Z,0.00
2023-05-23T22:37:01.696Z,0.00
2023-05-23T22:42:01.612Z,0.00
2023-05-23T22:47:01.662Z,0.00
2023-05-23T22:52:01.523Z,0.00
2023-05-23T22:57:01.429Z,0.00
2023-05-23T23:02:01.407Z,0.00
2023-05-23T23:07:01.289Z,0.00
2023-05-23T23:12:01.242Z,0.00
2023-05-23T23:17:01.168Z,0.00
2023-05-23T23:22:01.079Z,0.00
2023-05-23T23:27:01.044Z,0.00
2023-05-23T23:32:00.961Z,0.00
2023-05-23T23:37:00.963Z,0.00
2023-05-23T23:42:00.843Z,0.00
2023-05-23T23:47:00.788Z,0.00
2023-05-23T23:52:00.742Z,0.00
2023-05-23T23:57:00.642Z,0.00
